Time;durP1;ratioP1;P1;durP2;ratioP2;P2;SDS_P1;SDS_P2;PMS_P1;PMS_P2;Temp;Humidity;BMP_temperature;BMP_pressure;BME280_temperature;BME280_humidity;BME280_pressure;Samples;Min_cycle;Max_cycle;Signal;HPM_P1;HPM_P2
2023/06/07 00:01:33;;;;;;;14.98;4.10;;;;;;;14.63;66.78;150962.53;5064995;28;20029;-68
2023/06/07 00:03:59;;;;;;;7.18;4.03;;;;;;;14.56;67.07;150945.75;5064998;28;20033;-69
2023/06/07 00:06:28;;;;;;;6.93;4.13;;;;;;;14.56;67.39;150945.75;5064742;28;20053;-68
2023/06/07 00:08:55;;;;;;;6.53;3.88;;;;;;;14.55;67.04;150943.22;5064778;28;20048;-68
2023/06/07 00:11:21;;;;;;;9.90;4.68;;;;;;;14.53;67.13;150938.03;5064897;28;20063;-70
2023/06/07 00:13:48;;;;;;;9.75;4.75;;;;;;;14.43;68.06;150913.59;5064431;28;20135;-69
2023/06/07 00:16:14;;;;;;;9.50;4.50;;;;;;;14.41;68.13;150908.47;5064373;28;20146;-70
2023/06/07 00:18:40;;;;;;;9.63;3.92;;;;;;;14.43;68.00;150913.59;5064618;28;20039;-70
2023/06/07 00:21:07;;;;;;;6.97;4.10;;;;;;;14.41;68.67;150908.47;5064877;28;20056;-70
2023/06/07 00:23:35;;;;;;;12.95;4.43;;;;;;;14.34;68.09;150890.47;5063749;28;20029;-71
2023/06/07 00:26:01;;;;;;;10.38;4.65;;;;;;;14.28;68.68;150876.31;5064812;28;20096;-70
2023/06/07 00:28:27;;;;;;;8.32;3.85;;;;;;;14.24;68.48;150864.75;5064532;28;20056;-70
2023/06/07 00:30:53;;;;;;;6.72;3.80;;;;;;;14.26;68.33;150871.16;5063337;28;20048;-70
2023/06/07 00:33:23;;;;;;;8.13;3.67;;;;;;;14.18;69.28;150850.59;5064444;28;20385;-71
2023/06/07 00:35:49;;;;;;;7.47;4.05;;;;;;;14.16;68.79;150845.44;5054209;28;20051;-70
2023/06/07 00:38:14;;;;;;;7.38;4.38;;;;;;;14.13;69.87;150839.00;5046185;28;20245;-70
2023/06/07 00:40:40;;;;;;;8.07;4.40;;;;;;;14.15;69.91;150842.84;5064282;28;20025;-68
2023/06/07 00:43:06;;;;;;;7.88;4.57;;;;;;;14.07;70.64;150822.31;5064236;28;20032;-68
2023/06/07 00:45:31;;;;;;;8.13;3.80;;;;;;;14.02;70.32;150809.44;5064035;28;20198;-68
2023/06/07 00:47:57;;;;;;;6.57;3.67;;;;;;;13.90;70.55;150779.88;5063317;28;20107;-68
2023/06/07 00:50:23;;;;;;;7.30;4.15;;;;;;;13.89;70.79;150778.56;5063730;28;20032;-68
2023/06/07 00:52:50;;;;;;;8.25;3.95;;;;;;;13.84;70.62;150764.41;5062754;28;20061;-68
2023/06/07 00:55:16;;;;;;;8.15;3.75;;;;;;;13.93;70.33;150787.59;5063524;28;20325;-68
2023/06/07 00:57:42;;;;;;;6.95;4.10;;;;;;;13.91;70.33;150782.41;5063377;28;20100;-69
2023/06/07 01:00:13;;;;;;;8.00;3.90;;;;;;;13.85;71.48;150768.28;5063393;28;20033;-70
2023/06/07 01:02:39;;;;;;;8.53;3.87;;;;;;;13.79;71.09;150754.13;5063412;28;20024;-70
2023/06/07 01:05:05;;;;;;;6.20;4.05;;;;;;;13.89;71.43;150778.56;5063342;28;20355;-69
2023/06/07 01:07:32;;;;;;;8.13;4.05;;;;;;;13.85;71.00;150768.28;5063399;28;20036;-67
2023/06/07 01:10:00;;;;;;;10.40;4.20;;;;;;;13.82;70.55;150760.56;5063466;28;20218;-70
2023/06/07 01:12:27;;;;;;;10.93;3.97;;;;;;;13.92;71.36;150786.31;5063606;28;20155;-68
2023/06/07 01:14:54;;;;;;;9.50;4.95;;;;;;;13.90;71.56;150781.16;5063497;28;20078;-68
2023/06/07 01:17:24;;;;;;;11.80;4.82;;;;;;;13.88;71.37;150774.72;5063302;28;20025;-68
2023/06/07 01:19:53;;;;;;;8.15;4.47;;;;;;;13.90;69.77;150781.16;5063186;28;20024;-68
2023/06/07 01:22:27;;;;;;;15.07;5.00;;;;;;;13.83;70.33;150761.88;5063390;28;20100;-69
2023/06/07 01:24:56;;;;;;;11.15;5.00;;;;;;;13.87;70.80;150773.44;5063423;28;20039;-68
2023/06/07 01:27:27;;;;;;;10.25;4.75;;;;;;;13.74;71.01;150741.31;5063610;28;20035;-68
2023/06/07 01:29:55;;;;;;;11.23;4.93;;;;;;;13.77;70.52;150749.00;5061808;28;20051;-68
2023/06/07 01:32:22;;;;;;;10.50;4.20;;;;;;;13.86;70.39;150770.88;5063217;28;20055;-67
2023/06/07 01:34:50;;;;;;;9.63;4.07;;;;;;;13.87;69.31;150772.19;5063027;28;20025;-67
2023/06/07 01:37:16;;;;;;;8.10;4.70;;;;;;;13.87;69.61;150772.19;5063239;28;20031;-68
2023/06/07 01:39:42;;;;;;;8.38;4.50;;;;;;;13.89;70.74;150777.28;5062903;28;20033;-68
2023/06/07 01:42:09;;;;;;;15.95;5.95;;;;;;;13.80;70.19;150755.44;5062891;28;20102;-67
2023/06/07 01:44:37;;;;;;;7.13;4.13;;;;;;;13.63;70.14;150714.28;5063014;28;20321;-68
2023/06/07 01:47:04;;;;;;;11.98;4.47;;;;;;;13.90;70.90;150781.16;5063318;28;20135;-68
2023/06/07 01:49:30;;;;;;;7.18;3.95;;;;;;;13.92;71.33;150785.00;5063208;28;20032;-68
2023/06/07 01:51:55;;;;;;;9.38;4.57;;;;;;;13.95;71.27;150794.03;5062867;28;20033;-68
2023/06/07 01:54:21;;;;;;;10.77;4.53;;;;;;;13.71;71.75;150733.59;5062788;28;20094;-68
2023/06/07 01:57:11;;;;;;;11.75;4.50;;;;;;;13.95;71.83;150792.72;5062960;28;20029;-68
2023/06/07 01:59:49;;;;;;;10.80;4.22;;;;;;;13.98;71.37;150800.47;5062628;28;20096;-67
2023/06/07 02:02:32;;;;;;;10.65;4.00;;;;;;;13.87;72.74;150773.44;5062836;28;20041;-69
2023/06/07 02:05:09;;;;;;;8.23;4.05;;;;;;;13.92;72.24;150786.31;5062303;28;20072;-70
2023/06/07 02:07:42;;;;;;;8.50;4.03;;;;;;;13.90;71.61;150781.16;5042640;28;20353;-69
2023/06/07 02:10:09;;;;;;;7.75;4.13;;;;;;;14.04;72.12;150815.88;5060300;28;20337;-69
2023/06/07 02:12:36;;;;;;;7.75;4.22;;;;;;;14.02;72.46;150809.44;5062416;28;20082;-69
2023/06/07 02:15:02;;;;;;;9.57;4.05;;;;;;;14.07;71.51;150823.59;5062640;28;20031;-68
2023/06/07 02:17:32;;;;;;;12.35;4.50;;;;;;;14.16;71.19;150845.44;5063217;28;20047;-68
2023/06/07 02:19:57;;;;;;;13.02;4.50;;;;;;;14.12;70.93;150836.47;5042269;28;20079;-67
2023/06/07 02:22:23;;;;;;;8.13;4.28;;;;;;;14.12;71.03;150836.47;5061877;28;20373;-68
2023/06/07 02:24:50;;;;;;;8.18;4.22;;;;;;;14.14;71.34;150840.31;5062224;28;20056;-68
2023/06/07 02:27:15;;;;;;;7.35;4.13;;;;;;;14.15;70.71;150842.84;5062755;28;20070;-68
2023/06/07 02:29:41;;;;;;;10.80;3.97;;;;;;;14.01;72.08;150808.16;5062248;28;20029;-69
2023/06/07 02:32:07;;;;;;;7.70;4.05;;;;;;;14.26;71.34;150871.16;5062201;28;20337;-67
2023/06/07 02:34:33;;;;;;;9.05;4.43;;;;;;;14.29;71.41;150877.59;5062334;28;20029;-67
2023/06/07 02:36:58;;;;;;;8.50;3.92;;;;;;;14.35;71.63;150893.06;5062632;28;20100;-68
2023/06/07 02:39:24;;;;;;;8.88;3.95;;;;;;;14.38;71.47;150899.44;5062563;28;20029;-67
2023/06/07 02:41:50;;;;;;;7.72;3.70;;;;;;;14.49;71.18;150927.75;5062298;28;20057;-66
2023/06/07 02:44:15;;;;;;;7.53;3.80;;;;;;;14.52;71.19;150934.19;5062584;28;20028;-67
2023/06/07 02:46:41;;;;;;;14.75;4.47;;;;;;;14.53;71.60;150938.03;5062495;28;20032;-66
2023/06/07 02:49:07;;;;;;;10.40;4.03;;;;;;;14.62;70.66;150961.25;5062176;28;20025;-66
2023/06/07 02:51:32;;;;;;;10.90;4.00;;;;;;;14.65;70.30;150968.97;5062398;28;20035;-66
2023/06/07 02:53:59;;;;;;;7.57;4.00;;;;;;;14.75;69.73;150992.09;5062222;28;20025;-66
2023/06/07 02:56:25;;;;;;;6.20;3.45;;;;;;;14.88;69.74;151024.25;5062399;28;20097;-68
2023/06/07 02:58:51;;;;;;;9.48;3.80;;;;;;;14.91;69.90;151032.03;5062709;28;20041;-69
2023/06/07 03:01:18;;;;;;;9.30;4.60;;;;;;;14.99;70.12;151052.56;5062298;28;20043;-69
2023/06/07 03:03:44;;;;;;;5.90;4.13;;;;;;;15.05;68.70;151066.72;5062224;28;20037;-69
2023/06/07 03:06:09;;;;;;;11.95;4.35;;;;;;;15.12;68.67;151084.72;5062301;28;20049;-69
2023/06/07 03:08:35;;;;;;;8.60;4.63;;;;;;;15.19;66.99;151102.75;5062361;28;20049;-69
2023/06/07 03:11:01;;;;;;;8.15;3.75;;;;;;;15.29;67.99;151127.22;5062399;28;20036;-70
2023/06/07 03:13:26;;;;;;;5.70;4.10;;;;;;;15.28;66.39;151125.94;5062305;28;20036;-69
2023/06/07 03:15:52;;;;;;;8.73;4.50;;;;;;;15.34;65.81;151140.09;5063428;28;20086;-71
2023/06/07 03:18:18;;;;;;;9.38;4.72;;;;;;;15.47;65.89;151173.53;5065997;28;20037;-70
2023/06/07 03:20:44;;;;;;;11.10;4.85;;;;;;;15.59;65.26;151201.88;5065621;28;20214;-70
2023/06/07 03:23:10;;;;;;;10.60;4.47;;;;;;;15.70;64.27;151230.19;5064577;28;20269;-70
2023/06/07 03:25:36;;;;;;;9.30;5.00;;;;;;;15.79;64.07;151252.13;5064429;28;20227;-70
2023/06/07 03:28:02;;;;;;;8.20;4.38;;;;;;;15.82;63.52;151261.16;5064410;28;20088;-69
2023/06/07 03:30:28;;;;;;;10.95;5.15;;;;;;;15.92;63.89;151285.63;5065552;28;20025;-69
2023/06/07 03:32:54;;;;;;;7.97;4.53;;;;;;;15.93;64.12;151288.16;5065646;28;20088;-69
2023/06/07 03:35:19;;;;;;;7.65;4.70;;;;;;;16.01;63.52;151307.50;5065435;28;20024;-69
2023/06/07 03:37:45;;;;;;;10.23;5.30;;;;;;;16.07;63.51;151322.94;5065415;28;20067;-68
2023/06/07 03:40:12;;;;;;;9.77;4.93;;;;;;;16.15;63.25;151342.28;5065233;28;20033;-68
2023/06/07 03:42:38;;;;;;;8.02;5.20;;;;;;;16.25;62.47;151366.69;5065261;28;20033;-70
2023/06/07 03:45:04;;;;;;;7.75;4.90;;;;;;;16.30;62.16;151379.59;5065316;28;20143;-70
2023/06/07 03:47:30;;;;;;;7.97;4.20;;;;;;;16.32;62.34;151384.78;5065370;28;20048;-68
2023/06/07 03:49:56;;;;;;;9.07;5.35;;;;;;;16.43;62.23;151411.78;5065044;28;20037;-68
2023/06/07 03:52:22;;;;;;;9.90;5.10;;;;;;;16.55;61.47;151442.72;5065184;28;20025;-68
2023/06/07 03:54:48;;;;;;;6.75;3.88;;;;;;;16.68;60.64;151476.19;5065052;28;20021;-69
2023/06/07 03:57:13;;;;;;;8.80;4.85;;;;;;;16.54;60.22;151440.13;5065103;28;20079;-69
2023/06/07 03:59:40;;;;;;;8.52;4.13;;;;;;;16.79;60.29;151501.97;5064899;28;20321;-68
2023/06/07 04:02:06;;;;;;;11.45;5.32;;;;;;;16.79;60.33;151501.97;5064998;28;20052;-69
2023/06/07 04:04:33;;;;;;;8.05;4.93;;;;;;;16.82;59.56;151511.00;5064861;28;20033;-69
2023/06/07 04:07:02;;;;;;;9.75;4.47;;;;;;;16.90;60.06;151530.34;5064881;28;20040;-69
2023/06/07 04:09:29;;;;;;;8.43;4.30;;;;;;;16.92;60.07;151535.53;5065170;28;20198;-69
2023/06/07 04:11:55;;;;;;;6.65;4.55;;;;;;;16.94;59.88;151540.66;5064363;28;20064;-68
2023/06/07 04:14:20;;;;;;;6.88;4.10;;;;;;;16.94;60.01;151540.66;5064594;28;20309;-68
2023/06/07 04:16:46;;;;;;;8.25;4.10;;;;;;;16.97;59.69;151548.38;5064546;28;20025;-69
2023/06/07 04:19:12;;;;;;;6.43;3.95;;;;;;;17.15;59.56;151592.22;5064835;28;20247;-67
2023/06/07 04:21:38;;;;;;;9.82;4.07;;;;;;;17.25;59.21;151618.00;5064319;28;20029;-68
2023/06/07 04:24:04;;;;;;;9.13;4.35;;;;;;;17.25;59.79;151618.00;5064459;28;20257;-69
2023/06/07 04:26:31;;;;;;;8.45;4.30;;;;;;;17.24;58.66;151616.72;5064446;28;20041;-69
2023/06/07 04:28:57;;;;;;;11.70;5.13;;;;;;;17.34;58.98;151639.91;5064713;28;20025;-68
2023/06/07 04:31:29;;;;;;;8.10;3.95;;;;;;;17.36;59.68;151646.34;5064126;28;20139;-69
2023/06/07 04:33:57;;;;;;;6.90;4.05;;;;;;;17.43;59.02;151664.41;5063972;28;20032;-68
2023/06/07 04:36:25;;;;;;;10.52;4.75;;;;;;;17.49;58.88;151677.31;5064406;28;20060;-68
2023/06/07 04:38:52;;;;;;;8.77;4.25;;;;;;;17.56;57.96;151696.63;5064301;28;20024;-69
2023/06/07 04:41:18;;;;;;;8.60;4.40;;;;;;;17.73;57.94;151737.91;5064102;28;20025;-69
2023/06/07 04:43:48;;;;;;;7.38;4.35;;;;;;;17.76;57.73;151746.88;5064100;28;20088;-69
2023/06/07 04:46:15;;;;;;;9.38;3.95;;;;;;;17.85;58.02;151768.81;5063928;28;20122;-69
2023/06/07 04:48:43;;;;;;;6.28;3.83;;;;;;;17.94;57.46;151790.75;5063764;28;20040;-69
2023/06/07 04:51:09;;;;;;;7.60;4.20;;;;;;;17.98;57.70;151799.81;5063715;28;20302;-69
2023/06/07 04:53:36;;;;;;;7.63;3.97;;;;;;;18.05;56.90;151819.13;5063505;28;20031;-69
2023/06/07 04:56:03;;;;;;;7.10;4.28;;;;;;;18.08;56.70;151826.88;5063606;28;20025;-69
2023/06/07 04:58:31;;;;;;;8.23;3.80;;;;;;;18.18;56.10;151851.38;5063626;28;20025;-69
2023/06/07 05:00:56;;;;;;;7.90;3.72;;;;;;;18.23;55.96;151864.28;5063122;28;20041;-68
2023/06/07 05:03:24;;;;;;;7.65;3.22;;;;;;;18.34;55.69;151891.38;5063882;28;20033;-71
2023/06/07 05:05:50;;;;;;;8.90;3.67;;;;;;;18.52;56.31;151936.50;5063162;28;20116;-69
2023/06/07 05:08:17;;;;;;;5.93;3.60;;;;;;;18.62;55.07;151961.03;5063733;28;20363;-69
2023/06/07 05:10:42;;;;;;;4.22;3.22;;;;;;;18.69;54.33;151979.06;5063357;28;20036;-69
2023/06/07 05:13:08;;;;;;;7.93;3.50;;;;;;;18.85;54.44;152017.78;5063658;28;20040;-70
2023/06/07 05:15:34;;;;;;;5.13;3.08;;;;;;;19.04;53.33;152066.88;5063482;28;20021;-68
2023/06/07 05:18:01;;;;;;;5.25;2.92;;;;;;;19.48;53.34;152176.53;5062344;28;20028;-70
2023/06/07 05:20:28;;;;;;;5.18;3.08;;;;;;;19.63;52.50;152214.00;5063358;28;20055;-70
2023/06/07 05:22:53;;;;;;;5.65;2.88;;;;;;;19.66;51.32;152223.00;5063380;28;20033;-69
2023/06/07 05:25:19;;;;;;;8.73;3.70;;;;;;;19.53;50.00;152189.47;5063510;28;20067;-69
2023/06/07 05:27:45;;;;;;;6.03;3.35;;;;;;;19.67;51.73;152224.34;5063090;28;20024;-70
2023/06/07 05:30:11;;;;;;;63.95;8.02;;;;;;;19.73;52.16;152238.53;5063005;28;20078;-69
2023/06/07 05:32:37;;;;;;;44.45;6.30;;;;;;;19.76;51.91;152246.28;5063142;28;20260;-69
2023/06/07 05:35:03;;;;;;;9.98;3.28;;;;;;;19.70;51.61;152232.06;5062818;28;20195;-69
2023/06/07 05:37:30;;;;;;;24.23;4.10;;;;;;;19.46;50.81;152171.41;5063089;28;20031;-70
2023/06/07 05:39:56;;;;;;;11.60;3.78;;;;;;;19.72;50.64;152235.94;5062775;28;20028;-67
2023/06/07 05:42:22;;;;;;;18.17;3.65;;;;;;;19.69;50.03;152228.19;5063025;28;20052;-66
2023/06/07 05:44:49;;;;;;;6.47;3.10;;;;;;;19.77;51.00;152250.13;5062709;28;20274;-68
2023/06/07 05:47:20;;;;;;;7.32;2.58;;;;;;;19.83;49.81;152265.66;5063013;28;20048;-68
2023/06/07 05:49:46;;;;;;;9.02;2.92;;;;;;;19.88;48.99;152277.31;5062674;28;20047;-65
2023/06/07 05:52:13;;;;;;;5.82;3.05;;;;;;;19.98;49.84;152303.13;5062553;28;20033;-66
2023/06/07 05:54:47;;;;;;;7.18;3.13;;;;;;;19.96;50.30;152296.66;5062254;28;20127;-67
2023/06/07 05:57:12;;;;;;;3.78;2.45;;;;;;;19.96;50.05;152297.94;5062600;28;20032;-66
2023/06/07 05:59:38;;;;;;;6.88;3.10;;;;;;;19.92;49.96;152287.59;5062374;28;20021;-67
2023/06/07 06:02:04;;;;;;;3.90;2.45;;;;;;;19.95;48.21;152295.41;5049104;28;20033;-66
2023/06/07 06:04:30;;;;;;;12.77;3.72;;;;;;;20.10;48.83;152331.53;5056622;28;20202;-66
2023/06/07 06:06:56;;;;;;;9.30;2.63;;;;;;;20.08;49.09;152327.66;5055329;28;20052;-66
2023/06/07 06:09:22;;;;;;;23.20;7.07;;;;;;;20.14;48.83;152343.16;5062686;28;20056;-66
2023/06/07 06:11:48;;;;;;;11.07;3.92;;;;;;;20.21;48.57;152358.63;5062400;28;20032;-66
2023/06/07 06:14:13;;;;;;;6.47;2.63;;;;;;;20.31;47.48;152384.50;5062452;28;20121;-67
2023/06/07 06:16:39;;;;;;;6.85;2.85;;;;;;;20.21;46.66;152358.63;5062444;28;20029;-69
2023/06/07 06:19:04;;;;;;;9.23;2.95;;;;;;;20.30;47.34;152381.91;5062613;28;20265;-67
2023/06/07 06:21:30;;;;;;;4.88;2.63;;;;;;;20.43;48.01;152414.19;5062628;28;20025;-66
2023/06/07 06:23:55;;;;;;;6.22;2.53;;;;;;;20.49;47.56;152429.66;5062148;28;20074;-66
2023/06/07 06:26:21;;;;;;;5.18;2.50;;;;;;;20.54;46.32;152442.59;5062423;28;20385;-66
2023/06/07 06:28:47;;;;;;;3.85;2.60;;;;;;;20.58;47.67;152452.94;5062241;28;20071;-68
2023/06/07 06:31:13;;;;;;;4.28;2.65;;;;;;;20.63;46.95;152465.84;5062455;28;20036;-66
2023/06/07 06:33:38;;;;;;;6.47;2.42;;;;;;;20.78;46.77;152502.03;5062086;28;20025;-67
2023/06/07 06:36:04;;;;;;;5.55;2.72;;;;;;;20.82;46.71;152512.38;5062365;28;20049;-66
2023/06/07 06:38:30;;;;;;;9.52;2.83;;;;;;;20.76;47.26;152498.19;5062413;28;20041;-67
2023/06/07 06:40:55;;;;;;;6.78;2.70;;;;;;;20.77;47.55;152500.78;4964244;28;20052;-65
2023/06/07 06:43:21;;;;;;;6.82;2.53;;;;;;;20.79;46.49;152505.97;5061170;28;20028;-66
2023/06/07 06:45:46;;;;;;;6.13;2.90;;;;;;;20.81;45.77;152511.13;5062117;28;20040;-66
2023/06/07 06:48:12;;;;;;;4.80;2.47;;;;;;;20.79;47.82;152505.97;5061902;28;20129;-65
2023/06/07 06:50:38;;;;;;;10.65;3.00;;;;;;;20.82;46.63;152512.38;5063333;28;20120;-66
2023/06/07 06:53:03;;;;;;;7.80;2.55;;;;;;;20.85;45.75;152521.47;5065919;28;20385;-66
2023/06/07 06:55:30;;;;;;;7.50;2.80;;;;;;;20.91;47.05;152535.66;5066013;28;20021;-65
2023/06/07 06:57:56;;;;;;;6.10;2.65;;;;;;;20.87;45.74;152525.31;5065883;28;20064;-66
2023/06/07 07:00:23;;;;;;;6.20;2.63;;;;;;;21.02;47.09;152562.78;5065936;28;20120;-66
2023/06/07 07:02:49;;;;;;;4.70;2.20;;;;;;;20.96;46.19;152548.56;5066205;28;20032;-66
2023/06/07 07:05:15;;;;;;;5.57;2.30;;;;;;;21.09;46.40;152580.91;5065800;28;20048;-67
2023/06/07 07:07:41;;;;;;;5.72;2.42;;;;;;;21.16;45.61;152599.00;5065678;28;20309;-66
2023/06/07 07:10:07;;;;;;;8.60;2.85;;;;;;;21.24;46.90;152617.09;5064769;28;20099;-65
2023/06/07 07:12:33;;;;;;;3.95;2.33;;;;;;;21.22;45.81;152613.22;5065634;28;20025;-67
2023/06/07 07:14:59;;;;;;;7.35;2.42;;;;;;;21.25;45.84;152619.63;5065922;28;20111;-65
2023/06/07 07:17:24;;;;;;;7.45;2.95;;;;;;;21.33;46.86;152640.31;5065638;28;20036;-68
2023/06/07 07:19:50;;;;;;;7.50;3.00;;;;;;;21.52;46.24;152688.16;5065749;28;20024;-67
2023/06/07 07:22:15;;;;;;;4.82;2.55;;;;;;;21.28;45.97;152627.44;5064541;28;20051;-66
2023/06/07 07:24:41;;;;;;;2.92;2.30;;;;;;;21.40;44.60;152658.41;5065512;28;20415;-67
2023/06/07 07:27:07;;;;;;;3.70;2.80;;;;;;;21.15;43.88;152595.06;5065010;28;20029;-67
2023/06/07 07:29:33;;;;;;;3.47;2.10;;;;;;;21.16;44.03;152599.00;5064113;28;20118;-65
2023/06/07 07:31:59;;;;;;;9.13;2.58;;;;;;;21.09;44.43;152580.91;5065489;28;20051;-66
2023/06/07 07:34:25;;;;;;;4.50;2.38;;;;;;;21.35;44.65;152646.78;5064390;28;20044;-66
2023/06/07 07:36:50;;;;;;;2.92;2.33;;;;;;;21.41;44.01;152661.00;5062645;28;20088;-66
2023/06/07 07:39:17;;;;;;;4.60;2.60;;;;;;;21.63;44.97;152715.34;5064831;28;20127;-66
2023/06/07 07:41:42;;;;;;;5.72;2.47;;;;;;;21.55;43.58;152697.25;5063766;28;20033;-66
2023/06/07 07:44:08;;;;;;;3.60;2.40;;;;;;;21.44;43.33;152668.75;5065334;28;20355;-65
2023/06/07 07:46:35;;;;;;;6.93;3.05;;;;;;;21.62;44.74;152714.06;5065435;28;20329;-66
2023/06/07 07:49:01;;;;;;;4.13;2.15;;;;;;;21.54;42.97;152694.63;5065151;28;20043;-65
2023/06/07 07:51:27;;;;;;;9.10;2.60;;;;;;;21.69;43.19;152730.81;5065292;28;20029;-66
2023/06/07 07:53:52;;;;;;;8.20;2.80;;;;;;;21.50;42.75;152684.25;5065347;28;20075;-66
2023/06/07 07:56:19;;;;;;;6.00;2.58;;;;;;;21.60;42.43;152707.59;5065370;28;20045;-66
2023/06/07 07:58:45;;;;;;;5.25;2.53;;;;;;;21.50;42.45;152682.97;5064775;28;20303;-67
2023/06/07 08:01:11;;;;;;;6.40;2.60;;;;;;;21.67;43.30;152725.69;5057832;28;20087;-66
2023/06/07 08:03:37;;;;;;;6.97;2.80;;;;;;;21.84;42.63;152768.34;5055057;28;20036;-68
2023/06/07 08:06:03;;;;;;;7.35;2.72;;;;;;;21.94;42.63;152792.91;5052832;28;20042;-66
2023/06/07 08:08:29;;;;;;;6.47;2.58;;;;;;;22.08;41.78;152829.09;5062347;28;20021;-66
2023/06/07 08:10:54;;;;;;;3.88;2.90;;;;;;;22.03;42.85;152816.16;5063599;28;20052;-65
2023/06/07 08:13:20;;;;;;;6.47;2.50;;;;;;;22.16;41.48;152849.81;5063496;28;20013;-67
2023/06/07 08:15:46;;;;;;;5.80;2.72;;;;;;;22.33;41.07;152892.53;5057018;28;20026;-67
2023/06/07 08:18:12;;;;;;;3.78;2.30;;;;;;;22.35;40.96;152897.69;5050421;28;20021;-66
2023/06/07 08:20:38;;;;;;;4.13;2.60;;;;;;;22.59;41.30;152957.19;5063350;28;20070;-66
2023/06/07 08:23:05;;;;;;;9.85;3.13;;;;;;;22.40;42.85;152909.31;5064645;28;20032;-66
2023/06/07 08:25:30;;;;;;;5.82;2.25;;;;;;;22.64;40.82;152968.81;5064200;28;20029;-65
2023/06/07 08:27:56;;;;;;;7.10;4.20;;;;;;;22.80;40.38;153010.19;5064139;28;20032;-66
2023/06/07 08:30:22;;;;;;;4.50;2.45;;;;;;;22.79;40.05;153006.31;5064151;28;20043;-69
2023/06/07 08:32:47;;;;;;;3.90;2.45;;;;;;;23.00;40.45;153059.38;5058918;28;20025;-67
2023/06/07 08:35:13;;;;;;;5.38;2.63;;;;;;;23.14;39.92;153095.63;5064115;28;20248;-67
2023/06/07 08:37:39;;;;;;;5.30;2.67;;;;;;;23.10;40.93;153085.22;5062585;28;20091;-66
2023/06/07 08:40:06;;;;;;;4.10;2.40;;;;;;;23.12;39.70;153090.47;5064058;28;20048;-66
2023/06/07 08:42:33;;;;;;;3.22;2.53;;;;;;;23.24;38.47;153120.22;5063810;28;20047;-67
2023/06/07 08:44:59;;;;;;;6.63;2.92;;;;;;;23.17;38.95;153103.38;5063871;28;20036;-67
2023/06/07 08:47:27;;;;;;;10.15;2.83;;;;;;;22.92;39.72;153039.97;5064142;28;20040;-67
2023/06/07 08:49:57;;;;;;;4.65;2.38;;;;;;;22.51;39.71;152937.78;5053085;28;20317;-68
2023/06/07 08:52:26;;;;;;;9.45;2.20;;;;;;;22.52;38.69;152940.38;5063184;28;20059;-65
2023/06/07 08:54:58;;;;;;;6.00;2.47;;;;;;;22.42;39.13;152914.50;5063787;28;20096;-66
2023/06/07 08:57:25;;;;;;;6.75;2.35;;;;;;;22.45;39.08;152921.00;5063834;28;20292;-67
2023/06/07 08:59:51;;;;;;;4.40;2.45;;;;;;;22.80;39.47;153010.19;5063712;28;20025;-67
2023/06/07 09:02:17;;;;;;;5.13;2.80;;;;;;;22.81;39.09;153011.50;5063842;28;20083;-66
2023/06/07 09:04:43;;;;;;;8.27;2.70;;;;;;;22.98;39.05;153054.22;5063828;28;20401;-68
2023/06/07 09:07:10;;;;;;;4.60;2.40;;;;;;;23.16;38.44;153100.84;5058829;28;20040;-66
2023/06/07 09:09:36;;;;;;;5.78;2.50;;;;;;;23.01;36.97;153061.97;5053242;28;20060;-66
2023/06/07 09:12:02;;;;;;;6.05;2.65;;;;;;;23.07;39.07;153078.78;5063407;28;20376;-66
2023/06/07 09:14:31;;;;;;;3.42;2.65;;;;;;;23.18;38.46;153106.00;5062640;28;20029;-66
2023/06/07 09:16:58;;;;;;;2.42;2.22;;;;;;;23.43;38.50;153168.13;5061993;28;20028;-66
2023/06/07 09:19:36;;;;;;;3.65;2.80;;;;;;;23.44;37.51;153172.00;5058202;28;20357;-66
2023/06/07 09:22:06;;;;;;;5.85;3.03;;;;;;;23.43;38.00;153169.41;5054827;28;20025;-66
2023/06/07 09:24:33;;;;;;;7.50;2.50;;;;;;;23.34;38.14;153144.81;5063484;28;20040;-67
2023/06/07 09:27:00;;;;;;;6.13;2.78;;;;;;;22.70;37.33;152984.31;5063344;28;20083;-65
2023/06/07 09:29:28;;;;;;;3.65;2.75;;;;;;;22.92;37.55;153041.25;5063689;28;20269;-66
2023/06/07 09:32:14;;;;;;;7.00;3.00;;;;;;;22.91;38.28;153038.66;5059078;28;20121;-66
2023/06/07 09:34:40;;;;;;;19.40;3.53;;;;;;;23.21;39.10;153112.47;5062905;28;20056;-66
2023/06/07 09:37:06;;;;;;;8.77;3.13;;;;;;;23.39;39.28;153157.78;5063326;28;20025;-66
2023/06/07 09:39:32;;;;;;;3.47;2.30;;;;;;;23.19;36.95;153108.59;5062987;28;20059;-66
2023/06/07 09:41:58;;;;;;;6.82;2.50;;;;;;;22.93;37.58;153043.84;5062719;28;20079;-67
2023/06/07 09:44:26;;;;;;;6.93;2.88;;;;;;;23.08;38.81;153080.06;5062851;28;20124;-66
2023/06/07 09:46:52;;;;;;;7.65;2.78;;;;;;;22.87;38.78;153027.03;5062440;28;20048;-66
2023/06/07 09:49:28;;;;;;;5.93;2.70;;;;;;;22.68;38.14;152979.19;5062945;28;20067;-66
2023/06/07 09:51:54;;;;;;;5.88;2.55;;;;;;;22.99;38.71;153058.09;5062462;28;20059;-67
2023/06/07 09:54:47;;;;;;;5.43;2.65;;;;;;;23.16;37.60;153100.84;5062577;28;20029;-67
2023/06/07 09:57:25;;;;;;;3.20;2.28;;;;;;;23.29;37.48;153133.19;5062238;28;20088;-66
2023/06/07 10:00:16;;;;;;;4.03;2.70;;;;;;;23.40;37.77;153160.31;5062398;28;20029;-66
2023/06/07 10:02:43;;;;;;;5.10;2.50;;;;;;;23.26;37.87;153126.69;5060633;28;20027;-66
2023/06/07 10:05:12;;;;;;;4.57;2.17;;;;;;;23.26;37.03;153126.69;5062641;28;20020;-67
2023/06/07 10:07:43;;;;;;;5.57;2.88;;;;;;;22.95;37.63;153046.44;5061057;28;20194;-65
2023/06/07 10:10:14;;;;;;;6.72;2.92;;;;;;;22.86;37.58;153024.41;5062516;28;20272;-66
2023/06/07 10:12:41;;;;;;;3.83;2.55;;;;;;;22.76;39.03;152999.88;5060300;28;20033;-66
2023/06/07 10:15:09;;;;;;;3.83;2.40;;;;;;;22.72;37.22;152989.53;5062319;28;20047;-66
2023/06/07 10:18:13;;;;;;;4.20;2.72;;;;;;;22.71;38.28;152986.94;5059682;28;20051;-67
2023/06/07 10:20:44;;;;;;;6.20;2.40;;;;;;;22.61;38.94;152961.06;5043795;28;20040;-67
2023/06/07 10:23:19;;;;;;;4.15;2.92;;;;;;;22.44;38.87;152919.66;5061132;28;20298;-67
2023/06/07 10:25:58;;;;;;;5.28;2.80;;;;;;;22.60;38.61;152958.47;5063610;28;20092;-66
2023/06/07 10:28:39;;;;;;;5.85;2.70;;;;;;;22.70;37.79;152984.31;5062374;28;20040;-67
2023/06/07 10:31:09;;;;;;;4.55;2.42;;;;;;;22.54;38.61;152944.25;5066896;28;20087;-67
2023/06/07 10:33:35;;;;;;;4.25;2.53;;;;;;;22.42;36.94;152914.50;5066276;28;20383;-67
2023/06/07 10:36:02;;;;;;;4.93;2.50;;;;;;;22.53;37.33;152942.97;5066516;28;20037;-67
2023/06/07 10:38:32;;;;;;;8.13;2.85;;;;;;;22.65;38.51;152971.44;5065972;28;20121;-66
2023/06/07 10:41:01;;;;;;;5.00;2.85;;;;;;;22.59;37.32;152957.19;5065999;28;20028;-67
2023/06/07 10:43:28;;;;;;;3.50;2.63;;;;;;;22.75;39.21;152997.28;5066206;28;20052;-67
2023/06/07 10:46:20;;;;;;;5.05;3.17;;;;;;;22.67;38.34;152976.56;5065170;28;20309;-67
2023/06/07 10:48:46;;;;;;;6.95;2.95;;;;;;;22.69;37.46;152983.06;5066399;28;20104;-67
2023/06/07 10:51:12;;;;;;;6.15;2.60;;;;;;;22.85;37.52;153023.13;5066538;28;20044;-67
2023/06/07 10:53:52;;;;;;;6.85;2.90;;;;;;;23.00;38.09;153060.69;5065382;28;20115;-66
2023/06/07 10:56:34;;;;;;;6.30;2.70;;;;;;;23.19;37.69;153108.59;5066463;28;20028;-67
2023/06/07 10:59:15;;;;;;;5.68;2.60;;;;;;;23.35;38.05;153147.41;5066300;28;20051;-67
2023/06/07 11:01:46;;;;;;;5.43;2.80;;;;;;;23.40;36.88;153160.31;5064676;28;20033;-66
2023/06/07 11:04:37;;;;;;;4.20;3.03;;;;;;;23.32;37.46;153139.66;5066160;28;20032;-66
2023/06/07 11:07:15;;;;;;;10.68;3.10;;;;;;;23.00;36.08;153059.38;5066003;28;20048;-66
2023/06/07 11:09:42;;;;;;;5.30;3.33;;;;;;;23.34;35.90;153146.09;5065999;28;20264;-65
2023/06/07 11:12:07;;;;;;;5.50;2.90;;;;;;;23.35;34.96;153147.41;5066438;28;20047;-67
2023/06/07 11:14:33;;;;;;;4.75;2.60;;;;;;;23.12;36.12;153090.47;5066177;28;20024;-67
2023/06/07 11:16:59;;;;;;;5.95;2.72;;;;;;;23.35;36.58;153147.41;5064641;28;20029;-66
2023/06/07 11:19:53;;;;;;;7.85;3.13;;;;;;;23.47;36.53;153177.16;5064555;28;20024;-67
2023/06/07 11:22:20;;;;;;;12.00;3.25;;;;;;;23.45;36.36;153173.28;5065923;28;20044;-67
2023/06/07 11:24:48;;;;;;;7.68;2.90;;;;;;;23.50;35.26;153186.25;5065811;28;20323;-66
2023/06/07 11:27:19;;;;;;;5.47;2.70;;;;;;;23.42;35.04;153165.53;5065753;28;20027;-66